Time;durP1;ratioP1;P1;durP2;ratioP2;P2;SDS_P1;SDS_P2;PMS_P1;PMS_P2;Temp;Humidity;BMP_temperature;BMP_pressure;BME280_temperature;BME280_humidity;BME280_pressure;Samples;Min_cycle;Max_cycle;Signal;HPM_P1;HPM_P2
2023/08/16 00:00:08;;;;;;;3.27;2.97;;;19.80;99.90;;;;;;5068884;28;20486;-68
2023/08/16 00:02:35;;;;;;;2.00;1.90;;;19.90;99.90;;;;;;5069751;28;20464;-67
2023/08/16 00:05:02;;;;;;;2.63;2.30;;;19.90;99.90;;;;;;5069893;28;20462;-67
2023/08/16 00:07:32;;;;;;;2.50;2.30;;;19.90;99.90;;;;;;5069839;28;20500;-68
2023/08/16 00:09:59;;;;;;;3.00;2.40;;;19.90;99.90;;;;;;5069395;28;21035;-67
2023/08/16 00:12:26;;;;;;;2.17;2.07;;;20.00;99.90;;;;;;5069973;28;20846;-68
2023/08/16 00:14:52;;;;;;;3.23;2.37;;;20.00;99.90;;;;;;5069415;28;20461;-68
2023/08/16 00:17:19;;;;;;;2.50;2.30;;;20.00;99.90;;;;;;5069980;28;20496;-67
2023/08/16 00:19:46;;;;;;;2.50;2.30;;;20.00;99.90;;;;;;5069344;28;20853;-68
2023/08/16 00:22:12;;;;;;;2.37;2.17;;;20.10;99.90;;;;;;5070097;28;20475;-67
2023/08/16 00:24:40;;;;;;;2.70;2.50;;;20.10;99.90;;;;;;5069738;28;20469;-67
2023/08/16 00:27:07;;;;;;;2.47;2.23;;;20.10;99.90;;;;;;5069094;28;20461;-67
2023/08/16 00:29:34;;;;;;;2.90;2.60;;;20.10;99.90;;;;;;5069302;28;20992;-68
2023/08/16 00:32:02;;;;;;;5.10;2.57;;;20.10;99.90;;;;;;5069738;28;20831;-68
2023/08/16 00:34:29;;;;;;;2.50;2.30;;;20.10;99.90;;;;;;5069795;28;20887;-67
2023/08/16 00:36:55;;;;;;;4.17;2.70;;;20.20;99.90;;;;;;5069464;28;20469;-67
2023/08/16 00:39:22;;;;;;;2.90;2.70;;;20.20;99.90;;;;;;5069008;28;20480;-67
2023/08/16 00:41:50;;;;;;;2.40;2.20;;;20.20;99.90;;;;;;5069335;28;20835;-68
2023/08/16 00:44:17;;;;;;;2.67;2.20;;;20.20;99.90;;;;;;5069796;28;20455;-67
2023/08/16 00:46:43;;;;;;;3.00;2.80;;;20.20;99.90;;;;;;5071283;28;20457;-67
2023/08/16 00:49:10;;;;;;;2.20;2.03;;;20.30;99.90;;;;;;5073163;28;20482;-67
2023/08/16 00:51:37;;;;;;;3.47;2.90;;;20.30;99.90;;;;;;5073018;28;20462;-67
2023/08/16 00:54:05;;;;;;;2.70;2.50;;;20.30;99.90;;;;;;5073378;28;20462;-68
2023/08/16 00:56:32;;;;;;;2.77;2.53;;;20.30;99.90;;;;;;5073069;28;20464;-67
2023/08/16 00:59:00;;;;;;;2.70;2.50;;;20.30;99.90;;;;;;5072755;28;20475;-67
2023/08/16 01:01:27;;;;;;;3.30;2.57;;;20.30;99.90;;;;;;5072286;28;20486;-67
2023/08/16 01:03:55;;;;;;;2.80;2.60;;;20.30;99.90;;;;;;5073005;28;20455;-67
2023/08/16 01:06:21;;;;;;;2.83;2.53;;;20.30;99.90;;;;;;5072888;28;20458;-67
2023/08/16 01:08:48;;;;;;;4.53;2.80;;;20.20;99.90;;;;;;5072686;28;20469;-68
2023/08/16 01:11:21;;;;;;;3.00;2.70;;;20.20;99.90;;;;;;5072714;28;20455;-67
2023/08/16 01:13:55;;;;;;;2.93;2.73;;;20.20;99.90;;;;;;5072697;28;20469;-67
2023/08/16 01:16:26;;;;;;;2.70;2.50;;;20.20;99.90;;;;;;5072810;28;20463;-67
2023/08/16 01:18:54;;;;;;;2.87;2.60;;;20.10;99.90;;;;;;5056370;28;20484;-67
2023/08/16 01:21:21;;;;;;;2.47;2.27;;;20.20;99.90;;;;;;5072934;28;20482;-67
2023/08/16 01:24:00;;;;;;;2.57;2.37;;;20.10;99.90;;;;;;5072507;28;20462;-67
2023/08/16 01:26:32;;;;;;;2.77;2.57;;;20.10;99.90;;;;;;5072561;28;20857;-67
2023/08/16 01:29:02;;;;;;;3.13;2.83;;;20.10;99.90;;;;;;5072207;28;20862;-67
2023/08/16 01:31:29;;;;;;;3.80;3.10;;;20.00;99.90;;;;;;5072736;28;20824;-67
2023/08/16 01:33:57;;;;;;;3.07;2.80;;;20.00;99.90;;;;;;5072337;28;20833;-68
2023/08/16 01:36:23;;;;;;;3.03;2.83;;;19.90;99.90;;;;;;5072494;28;20555;-67
2023/08/16 01:38:50;;;;;;;3.00;2.70;;;19.90;99.90;;;;;;5071987;28;20492;-67
2023/08/16 01:41:21;;;;;;;2.37;1.87;;;19.90;99.90;;;;;;5072151;28;20482;-68
2023/08/16 01:43:50;;;;;;;3.13;2.90;;;19.90;99.90;;;;;;5070791;28;20968;-68
2023/08/16 01:46:19;;;;;;;2.53;2.33;;;19.90;99.90;;;;;;5072279;28;20456;-67
2023/08/16 01:48:47;;;;;;;3.07;2.77;;;19.80;99.90;;;;;;5071966;28;20481;-67
2023/08/16 01:51:15;;;;;;;2.57;2.37;;;19.80;99.90;;;;;;5071888;28;20461;-67
2023/08/16 01:53:41;;;;;;;2.57;2.33;;;19.80;99.90;;;;;;5071995;28;20494;-68
2023/08/16 01:56:08;;;;;;;2.50;2.20;;;19.70;99.90;;;;;;5071945;28;20461;-67
2023/08/16 01:58:35;;;;;;;3.40;3.10;;;19.70;99.90;;;;;;5071233;28;20997;-67
2023/08/16 02:01:03;;;;;;;2.83;2.57;;;19.60;99.90;;;;;;5071572;28;20480;-67
2023/08/16 02:03:31;;;;;;;3.03;2.70;;;19.60;99.90;;;;;;5072101;28;20947;-67
2023/08/16 02:05:58;;;;;;;2.53;2.33;;;19.60;99.90;;;;;;5071918;28;20536;-67
2023/08/16 02:08:24;;;;;;;3.20;2.53;;;19.60;99.90;;;;;;5071852;28;20465;-67
2023/08/16 02:10:51;;;;;;;2.60;2.40;;;19.60;99.90;;;;;;5069815;28;20466;-67
2023/08/16 02:13:18;;;;;;;2.97;2.67;;;19.50;99.90;;;;;;5072237;28;20924;-67
2023/08/16 02:15:45;;;;;;;2.80;2.60;;;19.50;99.90;;;;;;5071607;28;20458;-67
2023/08/16 02:18:13;;;;;;;3.20;2.90;;;19.50;99.90;;;;;;5071355;28;20461;-67
2023/08/16 02:20:40;;;;;;;2.40;2.20;;;19.50;99.90;;;;;;5071218;28;20487;-67
2023/08/16 02:23:07;;;;;;;2.60;2.40;;;19.40;99.90;;;;;;5071463;28;20512;-67
2023/08/16 02:25:34;;;;;;;2.83;2.50;;;19.40;99.90;;;;;;5071594;28;20839;-68
2023/08/16 02:28:01;;;;;;;2.50;2.30;;;19.30;99.90;;;;;;5055125;28;20495;-68
2023/08/16 02:30:27;;;;;;;2.70;2.23;;;19.30;99.90;;;;;;5071184;28;20476;-68
2023/08/16 02:32:55;;;;;;;2.60;2.33;;;19.30;99.90;;;;;;5066519;28;20468;-67
2023/08/16 02:35:23;;;;;;;2.80;2.60;;;19.30;99.90;;;;;;5071519;28;20515;-67
2023/08/16 02:37:49;;;;;;;3.20;2.77;;;19.20;99.90;;;;;;5070978;28;20841;-68
2023/08/16 02:40:16;;;;;;;2.93;2.30;;;19.20;99.90;;;;;;5070785;28;20500;-67
2023/08/16 02:42:45;;;;;;;3.40;3.13;;;19.20;99.90;;;;;;5070986;28;20487;-67
2023/08/16 02:45:12;;;;;;;3.00;2.70;;;19.10;99.90;;;;;;5065584;28;20467;-67
2023/08/16 02:47:38;;;;;;;3.57;2.77;;;19.10;99.90;;;;;;5070085;28;20469;-68
2023/08/16 02:50:06;;;;;;;3.00;2.67;;;19.10;99.90;;;;;;5069487;28;20475;-67
2023/08/16 02:52:34;;;;;;;2.70;2.50;;;19.00;99.90;;;;;;5071129;28;20454;-67
2023/08/16 02:55:01;;;;;;;3.20;2.90;;;19.00;99.90;;;;;;5068549;28;20465;-67
2023/08/16 02:57:28;;;;;;;2.80;2.60;;;19.00;99.90;;;;;;5070870;28;20449;-67
2023/08/16 02:59:55;;;;;;;2.90;2.70;;;19.00;99.90;;;;;;5065210;28;21006;-68
2023/08/16 03:02:21;;;;;;;2.97;2.77;;;19.00;99.90;;;;;;5070848;28;20482;-67
2023/08/16 03:04:48;;;;;;;2.60;2.40;;;18.90;99.90;;;;;;5070533;28;20835;-67
2023/08/16 03:07:15;;;;;;;2.97;2.67;;;18.90;99.90;;;;;;5070757;28;20456;-67
2023/08/16 03:09:43;;;;;;;4.60;2.97;;;18.90;99.90;;;;;;5069260;28;20479;-67
2023/08/16 03:12:09;;;;;;;2.70;2.50;;;18.90;99.90;;;;;;5070571;28;20460;-67
2023/08/16 03:14:36;;;;;;;3.13;2.70;;;18.90;99.90;;;;;;5070673;28;20459;-68
2023/08/16 03:17:04;;;;;;;3.63;3.17;;;18.90;99.90;;;;;;5070070;28;20950;-67
2023/08/16 03:19:31;;;;;;;2.63;2.43;;;18.90;99.90;;;;;;5070138;28;20486;-67
2023/08/16 03:21:58;;;;;;;2.40;2.20;;;18.80;99.90;;;;;;5061407;28;20493;-67
2023/08/16 03:24:26;;;;;;;3.03;2.70;;;18.80;99.90;;;;;;5070659;28;20464;-68
2023/08/16 03:26:54;;;;;;;2.90;2.70;;;18.80;99.90;;;;;;5070178;28;21152;-67
2023/08/16 03:29:20;;;;;;;3.40;3.10;;;18.80;99.90;;;;;;5070170;28;20475;-67
2023/08/16 03:31:47;;;;;;;2.53;2.20;;;18.70;99.90;;;;;;5040991;28;20835;-67
2023/08/16 03:34:15;;;;;;;3.17;2.97;;;18.70;99.90;;;;;;5041772;28;20464;-68
2023/08/16 03:36:43;;;;;;;2.60;2.40;;;18.70;99.90;;;;;;5035970;28;20802;-68
2023/08/16 03:39:09;;;;;;;2.90;2.70;;;18.70;99.90;;;;;;5037185;28;20473;-67
2023/08/16 03:41:37;;;;;;;3.30;3.00;;;18.70;99.90;;;;;;5035475;28;20993;-67
2023/08/16 03:44:06;;;;;;;4.47;3.20;;;18.70;99.90;;;;;;5044495;28;21167;-67
2023/08/16 03:46:33;;;;;;;3.40;2.83;;;18.60;99.90;;;;;;5032465;28;20204;-67
2023/08/16 03:48:59;;;;;;;2.80;2.60;;;18.60;99.90;;;;;;5058713;28;20851;-67
2023/08/16 03:51:26;;;;;;;2.87;2.67;;;18.60;99.90;;;;;;5068633;28;20452;-67
2023/08/16 03:53:53;;;;;;;2.93;2.63;;;18.60;99.90;;;;;;5068495;28;20551;-67
2023/08/16 03:56:20;;;;;;;3.70;2.90;;;18.60;99.90;;;;;;5070377;28;20450;-67
2023/08/16 03:58:46;;;;;;;2.87;2.47;;;18.60;99.90;;;;;;5069617;28;20471;-67
2023/08/16 04:01:15;;;;;;;3.07;2.77;;;18.60;99.90;;;;;;5069288;28;20492;-67
2023/08/16 04:03:42;;;;;;;3.70;3.30;;;18.60;99.90;;;;;;5068831;28;20459;-67
2023/08/16 04:06:11;;;;;;;3.53;3.27;;;18.60;99.90;;;;;;5069503;28;20547;-67
2023/08/16 04:08:38;;;;;;;3.40;3.10;;;18.70;99.90;;;;;;5069717;28;20568;-66
2023/08/16 04:11:05;;;;;;;5.57;3.17;;;18.70;99.90;;;;;;5068205;28;20453;-67
2023/08/16 04:13:32;;;;;;;3.50;3.20;;;18.80;99.90;;;;;;5068509;28;20464;-67
2023/08/16 04:15:58;;;;;;;3.10;2.90;;;18.80;99.90;;;;;;5069488;28;20459;-67
2023/08/16 04:18:27;;;;;;;3.40;2.77;;;18.90;99.90;;;;;;5069805;28;20492;-67
2023/08/16 04:20:54;;;;;;;3.57;3.27;;;18.90;99.90;;;;;;5071444;28;20490;-67
2023/08/16 04:23:22;;;;;;;4.90;3.43;;;18.90;99.90;;;;;;5073848;28;20958;-67
2023/08/16 04:25:49;;;;;;;3.20;2.90;;;18.90;99.90;;;;;;5073832;28;20461;-67
2023/08/16 04:28:16;;;;;;;3.03;2.80;;;18.90;99.90;;;;;;5073582;28;20466;-67
2023/08/16 04:30:42;;;;;;;3.53;3.23;;;18.90;99.90;;;;;;5073694;28;20455;-67
2023/08/16 04:33:09;;;;;;;2.90;2.70;;;19.00;99.90;;;;;;5072693;28;20459;-66
2023/08/16 04:35:37;;;;;;;3.37;3.07;;;19.00;99.90;;;;;;5073892;28;20947;-67
2023/08/16 04:38:04;;;;;;;3.40;3.10;;;19.00;99.90;;;;;;5064407;28;20460;-66
2023/08/16 04:40:31;;;;;;;3.37;3.07;;;19.00;99.90;;;;;;5073362;28;20478;-66
2023/08/16 04:42:58;;;;;;;2.80;2.50;;;19.00;99.90;;;;;;5073318;28;20460;-67
2023/08/16 04:45:24;;;;;;;3.57;3.27;;;19.00;99.90;;;;;;5073929;28;20973;-66
2023/08/16 04:47:51;;;;;;;2.70;2.50;;;19.00;99.90;;;;;;5072942;28;20464;-66
2023/08/16 04:50:18;;;;;;;3.27;2.97;;;18.90;99.90;;;;;;5073353;28;20485;-67
2023/08/16 04:52:46;;;;;;;5.20;3.20;;;18.90;99.90;;;;;;5073770;28;20462;-67
2023/08/16 04:55:13;;;;;;;2.90;2.70;;;18.90;99.90;;;;;;5073242;28;21160;-67
2023/08/16 04:57:40;;;;;;;3.30;3.00;;;18.90;99.90;;;;;;5073454;28;20880;-66
2023/08/16 05:00:08;;;;;;;3.67;3.20;;;18.90;99.90;;;;;;5072443;28;20491;-67
2023/08/16 05:02:35;;;;;;;3.23;2.93;;;18.90;99.90;;;;;;5073565;28;20480;-66
2023/08/16 05:05:02;;;;;;;4.20;2.77;;;18.90;99.90;;;;;;5072875;28;20472;-66
2023/08/16 05:07:29;;;;;;;3.27;2.83;;;18.90;99.90;;;;;;5073296;28;20495;-66
2023/08/16 05:09:57;;;;;;;2.57;2.37;;;18.90;99.90;;;;;;5072953;28;20480;-66
2023/08/16 05:12:24;;;;;;;2.93;2.60;;;19.00;99.90;;;;;;5073041;28;20456;-66
2023/08/16 05:14:50;;;;;;;3.43;2.60;;;19.00;99.90;;;;;;5073258;28;20461;-66
2023/08/16 05:17:17;;;;;;;5.20;3.20;;;19.00;99.90;;;;;;5056488;28;20467;-66
2023/08/16 05:19:44;;;;;;;2.53;2.20;;;19.00;99.90;;;;;;5072975;28;20473;-66
2023/08/16 05:22:10;;;;;;;3.17;2.87;;;19.00;99.90;;;;;;5072573;28;20481;-66
2023/08/16 05:24:37;;;;;;;3.60;3.30;;;19.10;99.90;;;;;;5072503;28;20459;-67
2023/08/16 05:27:11;;;;;;;6.83;4.10;;;19.10;99.90;;;;;;5072503;28;20465;-70
2023/08/16 05:29:38;;;;;;;4.43;3.20;;;19.20;99.90;;;;;;5072820;28;20515;-68
2023/08/16 05:32:05;;;;;;;4.07;3.43;;;19.20;99.90;;;;;;5071947;28;20842;-69
2023/08/16 05:34:31;;;;;;;5.43;4.07;;;19.20;99.90;;;;;;5073257;28;20456;-70
2023/08/16 05:36:58;;;;;;;4.13;3.73;;;19.30;99.90;;;;;;5072660;28;20459;-70
2023/08/16 05:39:25;;;;;;;4.80;4.40;;;19.30;99.90;;;;;;5072722;28;20488;-68
2023/08/16 05:41:52;;;;;;;6.50;5.03;;;19.40;99.90;;;;;;5072809;28;20531;-68
2023/08/16 05:44:20;;;;;;;4.40;3.87;;;19.50;99.90;;;;;;5056367;28;20479;-68
2023/08/16 05:46:47;;;;;;;4.53;4.13;;;19.50;99.90;;;;;;5072928;28;20465;-69
2023/08/16 05:49:13;;;;;;;4.40;3.53;;;19.60;99.90;;;;;;5071737;28;21003;-69
2023/08/16 05:51:40;;;;;;;6.53;5.13;;;19.70;99.90;;;;;;5073286;28;20459;-66
2023/08/16 05:54:07;;;;;;;4.63;4.23;;;19.80;99.90;;;;;;5072735;28;20836;-67
2023/08/16 05:56:34;;;;;;;7.50;5.60;;;19.90;99.90;;;;;;5072935;28;20465;-67
2023/08/16 05:59:00;;;;;;;5.57;5.07;;;19.90;99.90;;;;;;5072009;28;20476;-67
2023/08/16 06:01:28;;;;;;;5.97;5.37;;;19.90;99.90;;;;;;5072735;28;20556;-67
2023/08/16 06:03:55;;;;;;;6.87;5.50;;;20.00;99.90;;;;;;5072605;28;20530;-68
2023/08/16 06:06:22;;;;;;;5.80;5.20;;;20.00;99.90;;;;;;5072338;28;20457;-68
2023/08/16 06:08:48;;;;;;;7.07;6.37;;;20.10;99.90;;;;;;5072856;28;20476;-67
2023/08/16 06:11:15;;;;;;;5.17;4.67;;;20.10;99.90;;;;;;5071938;28;20461;-72
2023/08/16 06:13:42;;;;;;;6.10;5.50;;;20.20;99.90;;;;;;5071913;28;20480;-70
2023/08/16 06:16:10;;;;;;;5.60;4.90;;;20.20;99.90;;;;;;5071349;28;20459;-72
2023/08/16 06:18:38;;;;;;;5.07;4.57;;;20.40;99.90;;;;;;5071796;28;20547;-72
2023/08/16 06:21:04;;;;;;;5.50;5.00;;;20.50;99.90;;;;;;5071377;28;20464;-73
2023/08/16 06:23:31;;;;;;;4.90;4.17;;;20.60;99.90;;;;;;5072154;28;20834;-68
2023/08/16 06:25:58;;;;;;;6.83;4.77;;;20.70;99.90;;;;;;5071916;28;20460;-68
2023/08/16 06:28:24;;;;;;;5.70;5.10;;;20.70;99.90;;;;;;5055650;28;20465;-68
2023/08/16 06:30:51;;;;;;;4.20;3.90;;;20.70;99.90;;;;;;5071683;28;20461;-69
2023/08/16 06:33:18;;;;;;;5.27;4.77;;;20.70;99.90;;;;;;5071822;28;20458;-70
2023/08/16 06:35:46;;;;;;;5.30;4.80;;;20.70;99.90;;;;;;5072367;28;20859;-69
2023/08/16 06:38:13;;;;;;;4.80;4.40;;;20.70;99.90;;;;;;5071135;28;20902;-69
2023/08/16 06:40:40;;;;;;;6.13;5.53;;;20.70;99.90;;;;;;5071585;28;20462;-71
2023/08/16 06:43:06;;;;;;;4.80;4.23;;;20.70;99.90;;;;;;5071033;28;20477;-69
2023/08/16 06:45:33;;;;;;;5.80;5.30;;;20.80;99.90;;;;;;5071546;28;20466;-69
2023/08/16 06:48:03;;;;;;;5.33;4.83;;;20.80;99.90;;;;;;5071066;28;20955;-69
2023/08/16 06:50:30;;;;;;;5.23;4.77;;;20.80;99.90;;;;;;5069011;28;20479;-74
2023/08/16 06:52:58;;;;;;;5.27;4.70;;;20.80;99.90;;;;;;5071036;28;20456;-72
2023/08/16 06:55:25;;;;;;;6.73;5.50;;;20.80;99.90;;;;;;5070597;28;20473;-72
2023/08/16 06:57:51;;;;;;;5.80;5.30;;;20.80;99.90;;;;;;5070612;28;20457;-68
2023/08/16 07:00:18;;;;;;;5.63;4.93;;;20.90;99.90;;;;;;5070184;28;20505;-71
2023/08/16 07:02:45;;;;;;;6.67;4.60;;;20.80;99.90;;;;;;5070604;28;20852;-72
2023/08/16 07:05:12;;;;;;;5.30;4.90;;;20.90;99.90;;;;;;5070480;28;20466;-72
2023/08/16 07:07:39;;;;;;;6.17;4.53;;;21.00;99.90;;;;;;5070881;28;20493;-72
2023/08/16 07:10:09;;;;;;;4.90;4.27;;;21.10;99.90;;;;;;5070291;28;20501;-71
2023/08/16 07:12:36;;;;;;;5.43;4.90;;;21.10;99.90;;;;;;5062282;28;20462;-71
2023/08/16 07:15:03;;;;;;;6.17;4.57;;;21.20;99.90;;;;;;5068196;28;20466;-72
2023/08/16 07:17:29;;;;;;;6.17;5.10;;;21.20;99.90;;;;;;5054402;28;20465;-72
2023/08/16 07:19:56;;;;;;;4.00;3.67;;;21.30;99.90;;;;;;5069832;28;20853;-71
2023/08/16 07:22:25;;;;;;;6.83;4.77;;;21.40;99.90;;;;;;5068386;28;20480;-68
2023/08/16 07:24:53;;;;;;;5.20;4.70;;;21.50;99.90;;;;;;5066752;28;20461;-68
2023/08/16 07:27:21;;;;;;;4.43;4.03;;;21.70;99.90;;;;;;5067746;28;20466;-67
2023/08/16 07:29:48;;;;;;;4.07;3.67;;;21.80;99.90;;;;;;5063502;28;20488;-72
2023/08/16 07:32:15;;;;;;;8.00;5.00;;;22.00;99.90;;;;;;5069373;28;20451;-72
2023/08/16 07:34:43;;;;;;;5.10;4.60;;;22.10;99.90;;;;;;5069339;28;20671;-74
2023/08/16 07:37:11;;;;;;;4.47;4.07;;;22.20;99.90;;;;;;5069336;28;20885;-71
2023/08/16 07:39:37;;;;;;;5.20;4.07;;;22.20;99.90;;;;;;5068961;28;20479;-71
2023/08/16 07:42:05;;;;;;;4.50;3.87;;;22.30;99.90;;;;;;5068994;28;20480;-71
2023/08/16 07:44:33;;;;;;;4.13;3.73;;;22.50;99.90;;;;;;5053351;28;20488;-71
2023/08/16 07:47:00;;;;;;;4.50;4.10;;;22.60;99.90;;;;;;5069249;28;20708;-70
2023/08/16 07:49:27;;;;;;;5.00;3.93;;;22.70;99.90;;;;;;5052864;28;20484;-70
2023/08/16 07:51:56;;;;;;;4.67;3.60;;;22.70;99.90;;;;;;5043874;28;20811;-70
2023/08/16 07:56:51;;;;;;;4.23;3.83;;;22.80;99.90;;;;;;5075849;28;21001;-72
2023/08/16 07:59:18;;;;;;;4.30;3.90;;;22.90;99.90;;;;;;5071631;28;20476;-72
2023/08/16 08:01:46;;;;;;;4.20;3.80;;;23.00;99.90;;;;;;5085537;28;20447;-72
2023/08/16 08:04:12;;;;;;;4.80;4.40;;;23.10;99.90;;;;;;5086703;28;20956;-72
2023/08/16 08:06:39;;;;;;;4.40;4.00;;;23.20;99.90;;;;;;5070323;28;20825;-73
2023/08/16 08:09:06;;;;;;;4.03;3.70;;;23.30;99.90;;;;;;5068302;28;20489;-70
2023/08/16 08:11:37;;;;;;;3.97;3.57;;;23.40;99.90;;;;;;5089456;28;20466;-73
2023/08/16 08:14:04;;;;;;;4.73;4.33;;;23.50;99.90;;;;;;5089463;28;21619;-75
2023/08/16 08:16:31;;;;;;;4.00;3.70;;;23.60;99.90;;;;;;5072968;28;20540;-79
2023/08/16 08:19:09;;;;;;;5.13;4.63;;;23.70;99.90;;;;;;5067415;28;20863;-73
2023/08/16 08:21:38;;;;;;;5.23;4.47;;;23.70;99.90;;;;;;5060379;28;20821;-74
2023/08/16 08:24:06;;;;;;;4.47;4.07;;;23.90;99.90;;;;;;5069493;28;20600;-76
2023/08/16 08:26:33;;;;;;;5.13;4.57;;;24.00;99.90;;;;;;5081775;28;20870;-77
2023/08/16 08:29:00;;;;;;;4.80;4.30;;;24.10;99.90;;;;;;5081694;28;20474;-77
2023/08/16 08:31:27;;;;;;;4.87;3.70;;;24.30;99.90;;;;;;5089911;28;20450;-74
2023/08/16 08:33:56;;;;;;;4.53;4.23;;;24.40;99.90;;;;;;5089606;28;20952;-75
2023/08/16 08:36:25;;;;;;;4.37;4.07;;;24.50;99.90;;;;;;5087671;28;20458;-73
2023/08/16 08:38:54;;;;;;;4.83;3.50;;;24.60;99.90;;;;;;5069544;28;20477;-76
2023/08/16 08:41:23;;;;;;;5.50;4.57;;;24.70;99.90;;;;;;5070335;28;20459;-74
2023/08/16 08:43:50;;;;;;;4.47;4.07;;;24.70;99.90;;;;;;5076392;28;20482;-75
2023/08/16 08:46:26;;;;;;;5.00;3.83;;;24.90;99.90;;;;;;5087590;28;20458;-75
2023/08/16 08:49:02;;;;;;;4.80;4.40;;;24.90;99.90;;;;;;5089927;28;20505;-76
2023/08/16 08:51:31;;;;;;;15.97;4.53;;;25.10;99.90;;;;;;5079429;28;20541;-73
2023/08/16 08:55:02;;;;;;;4.10;3.60;;;25.20;99.90;;;;;;5072712;28;20451;-80
2023/08/16 08:57:50;;;;;;;4.57;4.10;;;25.30;99.90;;;;;;5008368;28;20480;-81
2023/08/16 09:00:21;;;;;;;4.53;4.13;;;25.40;99.90;;;;;;5050715;28;20470;-77
2023/08/16 09:02:50;;;;;;;6.20;4.50;;;25.60;99.90;;;;;;5082988;28;20474;-76
2023/08/16 09:05:18;;;;;;;4.70;4.30;;;25.60;99.90;;;;;;5088786;28;20461;-74
2023/08/16 09:07:47;;;;;;;4.60;4.00;;;25.80;99.90;;;;;;5071609;28;20462;-74
2023/08/16 09:10:14;;;;;;;4.70;4.30;;;25.90;99.90;;;;;;5072243;28;20478;-73
2023/08/16 09:12:41;;;;;;;4.60;4.20;;;26.00;99.90;;;;;;5093341;28;20454;-73
2023/08/16 09:15:09;;;;;;;4.73;4.13;;;26.20;99.90;;;;;;5092852;28;20465;-73
2023/08/16 09:17:36;;;;;;;4.33;3.80;;;26.20;99.90;;;;;;5081163;28;20450;-76
2023/08/16 09:20:05;;;;;;;4.13;3.83;;;26.30;99.90;;;;;;5087583;28;20477;-73
2023/08/16 09:22:32;;;;;;;3.90;3.50;;;26.30;99.90;;;;;;5092932;28;20485;-73
2023/08/16 09:25:03;;;;;;;3.93;3.63;;;26.30;99.90;;;;;;5092406;28;20453;-73
2023/08/16 09:27:31;;;;;;;4.40;4.00;;;26.40;99.90;;;;;;5092532;28;20458;-72
2023/08/16 09:29:58;;;;;;;5.70;3.93;;;26.60;99.90;;;;;;5091661;28;20504;-74
2023/08/16 09:32:29;;;;;;;5.23;3.60;;;26.70;99.90;;;;;;5092074;28;20454;-73
2023/08/16 09:34:57;;;;;;;4.27;3.87;;;26.70;99.90;;;;;;5087024;28;20563;-73
2023/08/16 09:37:23;;;;;;;4.07;3.57;;;26.80;99.90;;;;;;5072059;28;20554;-73
2023/08/16 09:39:56;;;;;;;3.27;2.97;;;26.80;99.90;;;;;;5071645;28;20478;-72
2023/08/16 09:42:33;;;;;;;4.53;3.80;;;26.70;99.90;;;;;;5071738;28;20462;-75
2023/08/16 09:45:00;;;;;;;4.17;3.47;;;26.70;99.90;;;;;;5072321;28;20485;-75
2023/08/16 09:47:28;;;;;;;4.40;3.93;;;26.60;99.90;;;;;;5081346;28;20477;-76
2023/08/16 09:49:55;;;;;;;4.10;3.70;;;26.50;99.90;;;;;;5081241;28;20720;-73
2023/08/16 09:52:22;;;;;;;4.20;3.80;;;26.50;99.90;;;;;;5081159;28;20460;-72
2023/08/16 09:54:50;;;;;;;5.30;3.77;;;26.50;99.90;;;;;;5081266;28;20809;-72
2023/08/16 09:57:18;;;;;;;5.47;4.40;;;26.60;99.90;;;;;;5089527;28;20465;-72
2023/08/16 09:59:47;;;;;;;4.20;3.90;;;26.70;99.90;;;;;;5084516;28;20478;-73
2023/08/16 10:02:14;;;;;;;4.30;3.90;;;26.70;99.90;;;;;;5085595;28;20465;-72
2023/08/16 10:04:41;;;;;;;5.00;3.80;;;26.70;99.90;;;;;;5089733;28;20458;-72
2023/08/16 10:07:09;;;;;;;3.77;3.47;;;26.70;99.90;;;;;;5081244;28;20843;-72
2023/08/16 10:09:36;;;;;;;4.80;3.60;;;26.80;99.90;;;;;;5083335;28;20485;-71
2023/08/16 10:12:03;;;;;;;4.13;3.83;;;26.80;99.90;;;;;;5084829;28;21001;-74
2023/08/16 10:14:31;;;;;;;5.43;4.37;;;26.90;99.90;;;;;;5084608;28;20968;-74
2023/08/16 10:17:02;;;;;;;4.07;3.77;;;27.00;99.90;;;;;;5079301;28;20546;-74
2023/08/16 10:19:33;;;;;;;4.00;3.53;;;27.10;99.90;;;;;;5081841;28;20856;-74
2023/08/16 10:22:00;;;;;;;6.03;4.13;;;27.10;99.90;;;;;;5087435;28;20458;-74
2023/08/16 10:24:34;;;;;;;4.50;4.10;;;27.10;99.90;;;;;;5089377;28;20477;-74
2023/08/16 10:27:04;;;;;;;5.33;3.90;;;27.10;99.90;;;;;;5080734;28;20483;-74
2023/08/16 10:29:41;;;;;;;6.23;4.37;;;27.20;99.90;;;;;;5080294;28;20474;-74
2023/08/16 10:32:12;;;;;;;5.37;4.10;;;27.40;99.90;;;;;;5078975;28;20975;-75
2023/08/16 10:34:41;;;;;;;4.60;4.20;;;27.50;99.90;;;;;;5084283;28;20465;-75
2023/08/16 10:37:08;;;;;;;4.40;3.80;;;27.80;99.90;;;;;;5086248;28;20459;-73
2023/08/16 10:39:34;;;;;;;4.50;4.10;;;28.00;99.90;;;;;;5079949;28;20484;-74
2023/08/16 10:42:05;;;;;;;5.03;3.93;;;28.20;99.90;;;;;;5071896;28;20546;-74
2023/08/16 10:44:32;;;;;;;4.10;3.70;;;28.30;99.90;;;;;;5071691;28;20470;-73
2023/08/16 10:46:59;;;;;;;4.50;4.07;;;28.40;99.90;;;;;;5076712;28;20511;-74
2023/08/16 10:49:38;;;;;;;4.27;3.90;;;28.50;99.90;;;;;;5082996;28;20484;-73
2023/08/16 10:52:05;;;;;;;4.50;3.70;;;28.70;99.90;;;;;;5071759;28;20463;-75
2023/08/16 10:54:33;;;;;;;3.90;3.60;;;28.80;99.90;;;;;;5081375;28;20451;-75
2023/08/16 10:57:02;;;;;;;4.17;3.87;;;28.90;99.90;;;;;;5083252;28;20458;-75
2023/08/16 10:59:37;;;;;;;4.93;4.43;;;29.00;99.90;;;;;;5082770;28;20827;-76
2023/08/16 11:02:14;;;;;;;3.83;3.50;;;29.10;99.90;;;;;;5080234;28;20451;-75
2023/08/16 11:04:43;;;;;;;5.63;4.10;;;29.20;99.90;;;;;;5082329;28;20481;-75
2023/08/16 11:07:09;;;;;;;4.17;3.77;;;29.30;99.90;;;;;;5083560;28;20515;-74
2023/08/16 11:09:37;;;;;;;3.73;3.40;;;29.40;99.90;;;;;;5073039;28;20474;-74
2023/08/16 11:12:04;;;;;;;3.87;3.57;;;29.50;99.90;;;;;;5085076;28;20454;-73
2023/08/16 11:14:32;;;;;;;3.93;3.63;;;29.50;99.90;;;;;;5083106;28;20458;-74
2023/08/16 11:16:59;;;;;;;4.53;3.70;;;29.60;99.90;;;;;;5078402;28;20459;-73
2023/08/16 11:19:26;;;;;;;4.63;4.10;;;29.60;99.90;;;;;;5079743;28;20557;-73
2023/08/16 11:21:57;;;;;;;4.10;3.70;;;29.60;99.90;;;;;;5075251;28;20458;-74
2023/08/16 11:24:24;;;;;;;5.33;4.20;;;29.70;99.90;;;;;;5075085;28;20475;-75
2023/08/16 11:26:53;;;;;;;4.53;3.63;;;29.80;99.90;;;;;;5074140;28;20458;-75
2023/08/16 11:29:20;;;;;;;3.70;3.50;;;30.00;99.90;;;;;;5082456;28;20478;-74
2023/08/16 11:31:47;;;;;;;4.93;3.93;;;30.00;99.90;;;;;;5080317;28;20457;-72
2023/08/16 11:34:14;;;;;;;3.87;3.57;;;30.10;99.90;;;;;;5079786;28;20458;-73
2023/08/16 11:36:41;;;;;;;4.87;4.30;;;30.10;99.90;;;;;;5087671;28;20458;-72
2023/08/16 11:39:09;;;;;;;4.20;3.80;;;30.20;99.90;;;;;;5084470;28;20799;-72
2023/08/16 11:41:36;;;;;;;5.20;3.93;;;30.30;99.90;;;;;;5083222;28;20803;-72
2023/08/16 11:44:03;;;;;;;4.60;4.00;;;30.30;99.90;;;;;;5082789;28;20865;-74
2023/08/16 11:46:40;;;;;;;5.30;3.77;;;30.40;99.90;;;;;;5082937;28;20457;-75
2023/08/16 11:49:08;;;;;;;5.20;4.20;;;30.60;99.90;;;;;;5082505;28;20469;-76
2023/08/16 11:51:35;;;;;;;4.27;3.60;;;30.70;99.90;;;;;;5073563;28;20566;-75
2023/08/16 11:54:01;;;;;;;4.27;3.87;;;30.70;99.90;;;;;;5079260;28;20453;-75
2023/08/16 11:56:30;;;;;;;5.73;4.23;;;30.80;99.90;;;;;;5079637;28;20561;-76
2023/08/16 11:58:56;;;;;;;4.20;3.90;;;31.00;99.90;;;;;;5070471;28;20481;-75
2023/08/16 12:01:24;;;;;;;4.60;4.20;;;31.10;99.90;;;;;;5078004;28;20458;-76
2023/08/16 12:03:50;;;;;;;4.50;4.17;;;31.20;99.90;;;;;;5079265;28;20497;-73
2023/08/16 12:06:17;;;;;;;5.20;3.60;;;31.30;99.90;;;;;;5085467;28;20456;-74
2023/08/16 12:08:49;;;;;;;3.90;3.60;;;31.40;99.90;;;;;;5066988;28;20478;-74
2023/08/16 12:11:26;;;;;;;4.00;3.70;;;31.40;99.90;;;;;;5068635;28;20538;-74
2023/08/16 12:13:54;;;;;;;4.33;3.93;;;31.40;99.90;;;;;;5069222;28;20504;-73
2023/08/16 12:16:21;;;;;;;4.50;3.73;;;31.40;99.90;;;;;;5068757;28;20518;-72
2023/08/16 12:18:50;;;;;;;4.90;4.00;;;31.30;99.90;;;;;;5071282;28;20570;-73
2023/08/16 12:21:17;;;;;;;4.83;3.63;;;31.00;99.90;;;;;;5089440;28;20463;-73
2023/08/16 12:23:46;;;;;;;4.20;3.90;;;30.90;99.90;;;;;;5072125;28;20565;-73
2023/08/16 12:26:13;;;;;;;3.90;3.60;;;30.70;99.90;;;;;;5089360;28;20454;-75
2023/08/16 12:28:40;;;;;;;6.03;3.83;;;30.50;99.90;;;;;;5089095;28;20560;-74
2023/08/16 12:31:08;;;;;;;3.73;3.43;;;30.30;99.90;;;;;;5083599;28;20459;-75
2023/08/16 12:33:34;;;;;;;3.90;3.60;;;30.30;99.90;;;;;;5069078;28;20462;-75
2023/08/16 12:36:01;;;;;;;3.97;3.47;;;30.30;99.90;;;;;;5068940;28;20470;-76
2023/08/16 12:38:28;;;;;;;4.40;3.77;;;30.40;99.90;;;;;;5068888;28;20482;-75
2023/08/16 12:40:55;;;;;;;4.10;3.70;;;30.70;99.90;;;;;;5069671;28;20469;-75
2023/08/16 12:43:21;;;;;;;3.60;3.30;;;30.90;99.90;;;;;;5072785;28;20469;-73
2023/08/16 12:45:48;;;;;;;3.60;3.30;;;31.10;99.90;;;;;;5072037;28;20834;-73
2023/08/16 12:48:16;;;;;;;4.13;3.80;;;31.20;99.90;;;;;;5078621;28;20458;-74
2023/08/16 12:50:43;;;;;;;3.90;3.60;;;31.30;99.90;;;;;;5084568;28;20455;-74
2023/08/16 12:53:10;;;;;;;4.37;3.50;;;31.30;99.90;;;;;;5079668;28;20869;-73